Scroll down
FLIGHT INFORMATION
United Airlines

UAL1768

At Arrival Gate

KSFO
 KVCV
DATE: 2018-09-30
GATE:  -
GATE DEPARTURE: 22:34
TAKEOFF: 22:57
DATE: 2018-09-30
GATE:  -
LANDING: 23:52
GATE ARRIVAL: 00:01
FLIGHT DATA
Crew: DOUGLAS MORLAN
Speed: 480 kts Altitude: 32000 ft
Stage Length: 302 nm
Route: 
Block Time:  -  Flight Time:  -
Fuel Used: 23865 LB
TRACK DATA
50000 FT1000 KT
AIRCRAFT INFO AND CUMULATIVE STATS
Aircraft Type: B744
Registration: N177UA
SELCAL: FGJP MSN/LN: 24384 / 819
Operator: UNITED AIRLINES
Total Flights: 3 
Total Block Time: 8.9 Total Flight Time: 7.9
Total Fuel Used: 174067 LB
DATALINK LOG | Newest first | Current as of: 2020-10-25 07:11:51
LABEL SEQUENCE CONTENT Dn/Up
QD015500:01 55.6▼ Dn
QC524923:52▼ Dn
464348/OV APLES /TM 2343 /FL150 /TP B744 /SK BKN /TA 18 /WV 208/28 /RM TO THE BONE YARD▼ Dn
QB573822:57▼ Dn
QA342822:34 80.1▼ Dn
2U2354KSFO 302156Z 28013KT 10SM FEW033 BKN150 BKN200 20/12 A2987 RMK AO2 SLP113 T02000122 $▲ Up
2S2123KSFO▼ Dn
2U0132KVCV 302145Z 16014G33KT 10SM SCT100 A2988▲ Up
2S5930KVCV▼ Dn


AIRCRAFT HISTORY
FLIGHT DATE FLIGHT NO. ORIGIN DESTINATION ROUTE BLOCK TIME FLIGHT TIME FUEL USED (LB) PILOT
2018-09-30UAL1768KSFO KVCV 1.50.923865Douglas Morlan
2018-08-19UAL1881KIAD KSFO 5.4594988Matthew Gales
2018-08-17UAL920KDEN KIAD 32.755215Kyle Weber